createdAt,value
2022-09-17T00:01:48.629Z,100311.19
2022-09-17T00:04:16.658Z,100307.34
2022-09-17T00:06:44.540Z,100316.25
2022-09-17T00:09:12.595Z,100314.94
2022-09-17T00:11:41.389Z,100311.31
2022-09-17T00:14:13.389Z,100314.25
2022-09-17T00:16:43.759Z,100314.94
2022-09-17T00:19:15.966Z,100319.16
2022-09-17T00:21:44.317Z,100319.00
2022-09-17T00:24:13.883Z,100311.00
2022-09-17T00:26:42.700Z,100308.59
2022-09-17T00:29:11.707Z,100312.34
2022-09-17T00:31:40.433Z,100308.53
2022-09-17T00:34:08.964Z,100312.25
2022-09-17T00:36:39.858Z,100312.25
2022-09-17T00:39:10.268Z,100319.94
2022-09-17T00:41:39.371Z,100320.69
2022-09-17T00:44:47.972Z,100318.53
2022-09-17T00:47:24.573Z,100321.66
2022-09-17T00:49:57.454Z,100328.22
2022-09-17T00:52:31.774Z,100325.41
2022-09-17T00:55:06.025Z,100330.00
2022-09-17T00:57:34.433Z,100324.34
2022-09-17T01:00:03.014Z,100327.50
2022-09-17T01:02:31.017Z,100327.78
2022-09-17T01:04:58.775Z,100323.78
2022-09-17T01:07:47.772Z,100332.72
2022-09-17T01:10:27.542Z,100330.88
2022-09-17T01:13:09.750Z,100326.03
2022-09-17T01:15:42.919Z,100333.25
2022-09-17T01:18:23.471Z,100335.06
2022-09-17T01:21:43.676Z,100335.94
2022-09-17T01:24:41.981Z,100333.28
2022-09-17T01:27:55.010Z,100341.59
2022-09-17T01:30:40.511Z,100345.13
2022-09-17T01:33:17.416Z,100348.91
2022-09-17T01:35:54.367Z,100347.75
2022-09-17T01:38:29.169Z,100344.34
2022-09-17T01:41:07.480Z,100346.16
2022-09-17T01:43:39.197Z,100338.97
2022-09-17T01:46:13.551Z,100342.13
2022-09-17T01:48:46.119Z,100343.28
2022-09-17T01:51:18.370Z,100341.13
2022-09-17T01:53:52.358Z,100340.84
2022-09-17T01:56:24.842Z,100350.25
2022-09-17T01:58:59.028Z,100350.59
2022-09-17T02:01:33.229Z,100352.41
2022-09-17T02:04:06.355Z,100346.59
2022-09-17T02:06:39.256Z,100356.03
2022-09-17T02:09:15.364Z,100342.81
2022-09-17T02:11:47.051Z,100346.53
2022-09-17T02:14:18.966Z,100358.53
2022-09-17T02:16:53.191Z,100345.56
2022-09-17T02:19:25.885Z,100349.91
2022-09-17T02:21:59.780Z,100348.88
2022-09-17T02:24:32.103Z,100349.91
2022-09-17T02:27:04.679Z,100348.34
2022-09-17T02:29:35.853Z,100347.47
2022-09-17T02:32:06.032Z,100356.91
2022-09-17T02:34:34.608Z,100358.59
2022-09-17T02:37:03.546Z,100348.22
2022-09-17T02:39:31.989Z,100357.72
2022-09-17T02:42:09.893Z,100348.66
2022-09-17T02:44:46.632Z,100365.03
2022-09-17T02:47:38.962Z,100367.78
2022-09-17T02:50:18.440Z,100368.94
2022-09-17T02:53:06.494Z,100362.91
2022-09-17T02:55:41.848Z,100365.34
2022-09-17T02:58:21.356Z,100367.78
2022-09-17T03:00:49.719Z,100360.41
2022-09-17T03:03:24.632Z,100363.06
2022-09-17T03:05:54.272Z,100374.84
2022-09-17T03:08:29.870Z,100373.81
2022-09-17T03:10:58.053Z,100372.84
2022-09-17T03:13:26.070Z,100377.88
2022-09-17T03:15:54.084Z,100382.34
2022-09-17T03:18:23.661Z,100376.31
2022-09-17T03:20:51.581Z,100376.06
2022-09-17T03:23:19.477Z,100376.38
2022-09-17T03:25:49.455Z,100371.88
2022-09-17T03:28:17.494Z,100373.00
2022-09-17T03:30:45.543Z,100370.50
2022-09-17T03:33:14.247Z,100375.03
2022-09-17T03:35:45.518Z,100373.22
2022-09-17T03:38:13.812Z,100370.16
2022-09-17T03:40:42.307Z,100380.44
2022-09-17T03:43:10.378Z,100367.97
2022-09-17T03:45:38.136Z,100376.16
2022-09-17T03:48:06.149Z,100377.34
2022-09-17T03:50:34.181Z,100380.31
2022-09-17T03:53:03.390Z,100384.44
2022-09-17T03:55:31.303Z,100378.34
2022-09-17T03:57:59.203Z,100378.41
2022-09-17T04:00:27.226Z,100376.41
2022-09-17T04:02:55.310Z,100385.81
2022-09-17T04:05:23.563Z,100377.53
2022-09-17T04:07:51.429Z,100386.13
2022-09-17T04:10:20.803Z,100390.47
2022-09-17T04:12:48.696Z,100395.34
2022-09-17T04:15:16.962Z,100387.69
2022-09-17T04:17:46.262Z,100393.44
2022-09-17T04:20:14.203Z,100396.69
2022-09-17T04:22:42.710Z,100394.53
2022-09-17T04:25:11.151Z,100401.38
2022-09-17T04:27:40.626Z,100395.91
2022-09-17T04:30:09.375Z,100401.03
2022-09-17T04:32:37.283Z,100399.03
2022-09-17T04:35:05.750Z,100395.72
2022-09-17T04:37:34.085Z,100400.13
2022-09-17T04:40:08.043Z,100394.28
2022-09-17T04:42:36.381Z,100399.03
2022-09-17T04:45:09.132Z,100396.88
2022-09-17T04:47:40.344Z,100405.56
2022-09-17T04:50:09.368Z,100404.75
2022-09-17T04:52:37.678Z,100408.34
2022-09-17T04:55:06.791Z,100406.16
2022-09-17T04:57:35.782Z,100405.13
2022-09-17T05:00:08.350Z,100407.19
2022-09-17T05:02:37.876Z,100398.13
2022-09-17T05:05:06.965Z,100412.00
2022-09-17T05:07:34.921Z,100404.03
2022-09-17T05:10:03.167Z,100404.91
2022-09-17T05:12:34.427Z,100412.22
2022-09-17T05:15:03.514Z,100416.41
2022-09-17T05:17:33.178Z,100411.28
2022-09-17T05:20:01.757Z,100422.69
2022-09-17T05:22:29.769Z,100422.63
2022-09-17T05:24:57.844Z,100419.44
2022-09-17T05:27:25.784Z,100423.50
2022-09-17T05:29:53.639Z,100421.75
2022-09-17T05:32:21.541Z,100425.88
2022-09-17T05:34:51.104Z,100425.97
2022-09-17T05:37:19.108Z,100418.34
2022-09-17T05:39:50.106Z,100427.38
2022-09-17T05:42:20.915Z,100423.69
2022-09-17T05:44:49.825Z,100431.72
2022-09-17T05:47:18.839Z,100436.44
2022-09-17T05:49:47.122Z,100430.78
2022-09-17T05:52:16.784Z,100427.75
2022-09-17T05:54:44.924Z,100430.63
2022-09-17T05:57:13.123Z,100438.91
2022-09-17T05:59:41.005Z,100434.66
2022-09-17T06:02:09.054Z,100441.16
2022-09-17T06:04:37.082Z,100446.53
2022-09-17T06:07:08.504Z,100447.84
2022-09-17T06:09:38.927Z,100448.47
2022-09-17T06:12:07.701Z,100459.91
2022-09-17T06:14:35.581Z,100466.06
2022-09-17T06:17:03.540Z,100472.25
2022-09-17T06:19:31.406Z,100471.53
2022-09-17T06:21:59.513Z,100469.91
2022-09-17T06:24:27.855Z,100479.88
2022-09-17T06:26:57.171Z,100483.50
2022-09-17T06:29:25.098Z,100485.00
2022-09-17T06:31:54.017Z,100482.88
2022-09-17T06:34:22.083Z,100490.56
2022-09-17T06:36:50.165Z,100482.50
2022-09-17T06:39:18.088Z,100485.22
2022-09-17T06:41:46.078Z,100479.88
2022-09-17T06:44:15.310Z,100480.38
2022-09-17T06:46:44.159Z,100492.03
2022-09-17T06:49:13.471Z,100491.22
2022-09-17T06:51:41.453Z,100480.56
2022-09-17T06:54:09.599Z,100482.28
2022-09-17T06:56:38.109Z,100487.47
2022-09-17T06:59:08.669Z,100480.88
2022-09-17T07:01:38.061Z,100475.59
2022-09-17T07:04:06.156Z,100479.16
2022-09-17T07:06:33.947Z,100471.84
2022-09-17T07:09:02.821Z,100479.25
2022-09-17T07:11:31.763Z,100485.88
2022-09-17T07:14:00.260Z,100491.44
2022-09-17T07:16:32.554Z,100489.41
2022-09-17T07:19:02.066Z,100487.97
2022-09-17T07:21:30.430Z,100482.03
2022-09-17T07:23:58.738Z,100496.44
2022-09-17T07:26:26.806Z,100493.09
2022-09-17T07:28:55.209Z,100485.81
2022-09-17T07:31:23.449Z,100485.78
2022-09-17T07:33:51.611Z,100490.69
2022-09-17T07:36:21.060Z,100489.19
2022-09-17T07:38:49.076Z,100496.31
2022-09-17T07:41:18.465Z,100487.72
2022-09-17T07:43:46.805Z,100493.47
2022-09-17T07:46:16.940Z,100491.66
2022-09-17T07:48:44.988Z,100489.06
2022-09-17T07:51:17.156Z,100486.47
2022-09-17T07:53:47.728Z,100488.72
2022-09-17T07:56:16.170Z,100485.78
2022-09-17T07:58:44.080Z,100478.19
2022-09-17T08:01:13.275Z,100486.72
2022-09-17T08:03:41.197Z,100486.53
2022-09-17T08:06:10.815Z,100475.69
2022-09-17T08:08:40.295Z,100479.47
2022-09-17T08:11:11.563Z,100484.31
2022-09-17T08:13:42.058Z,100473.13
2022-09-17T08:16:13.346Z,100475.22
2022-09-17T08:18:42.010Z,100474.78
2022-09-17T08:21:12.013Z,100471.59
2022-09-17T08:23:41.826Z,100472.78
2022-09-17T08:26:13.781Z,100475.59
2022-09-17T08:28:45.785Z,100475.66
2022-09-17T08:31:14.040Z,100478.81
2022-09-17T08:33:42.455Z,100481.34
2022-09-17T08:36:13.765Z,100473.78
2022-09-17T08:38:42.693Z,100482.53
2022-09-17T08:41:27.415Z,100478.13
2022-09-17T08:44:08.854Z,100474.03
2022-09-17T08:46:44.139Z,100479.34
2022-09-17T08:49:31.215Z,100479.56
2022-09-17T08:52:20.098Z,100473.13
2022-09-17T08:54:55.290Z,100468.06
2022-09-17T08:57:35.202Z,100470.75
2022-09-17T09:00:10.838Z,100476.63
2022-09-17T09:02:56.091Z,100467.88
2022-09-17T09:05:33.159Z,100480.75
2022-09-17T09:08:06.644Z,100479.69
2022-09-17T09:10:46.079Z,100480.38
2022-09-17T09:13:19.457Z,100474.94
2022-09-17T09:15:54.473Z,100476.31
2022-09-17T09:18:24.345Z,100470.00
2022-09-17T09:20:55.531Z,100474.78
2022-09-17T09:23:31.212Z,100473.25
2022-09-17T09:26:08.280Z,100472.38
2022-09-17T09:28:50.251Z,100484.78
2022-09-17T09:31:35.548Z,100474.50
2022-09-17T09:34:05.157Z,100472.63
2022-09-17T09:36:34.988Z,100467.47
2022-09-17T09:39:05.923Z,100469.69
2022-09-17T09:41:40.982Z,100475.50
2022-09-17T09:44:13.784Z,100471.56
2022-09-17T09:46:59.759Z,100476.31
2022-09-17T09:49:41.598Z,100479.91
2022-09-17T09:52:21.106Z,100472.38
2022-09-17T09:55:03.440Z,100467.66
2022-09-17T09:57:43.286Z,100470.75
2022-09-17T10:00:54.337Z,100473.31
2022-09-17T10:03:42.087Z,100467.59
2022-09-17T10:06:11.732Z,100469.44
2022-09-17T10:08:41.581Z,100471.94
2022-09-17T10:11:22.193Z,100467.44
2022-09-17T10:13:50.525Z,100472.19
2022-09-17T10:16:21.626Z,100461.69
2022-09-17T10:18:51.290Z,100469.13
2022-09-17T10:21:23.553Z,100460.97
2022-09-17T10:23:52.032Z,100448.88
2022-09-17T10:26:25.571Z,100448.19
2022-09-17T10:28:56.498Z,100455.63
2022-09-17T10:31:26.118Z,100447.56
2022-09-17T10:33:58.431Z,100448.22
2022-09-17T10:36:42.045Z,100455.13
2022-09-17T10:39:34.166Z,100451.97
2022-09-17T10:42:04.200Z,100461.34
2022-09-17T10:44:35.188Z,100451.13
2022-09-17T10:47:07.407Z,100465.94
2022-09-17T10:49:39.897Z,100458.53
2022-09-17T10:52:24.191Z,100463.13
2022-09-17T10:55:05.565Z,100452.72
2022-09-17T10:57:47.982Z,100452.34
2022-09-17T11:00:19.882Z,100451.16
2022-09-17T11:03:25.279Z,100460.28
2022-09-17T11:06:14.328Z,100463.13
2022-09-17T11:08:51.073Z,100452.50
2022-09-17T11:11:30.844Z,100454.31
2022-09-17T11:14:09.041Z,100443.72
2022-09-17T11:16:40.921Z,100448.22
2022-09-17T11:19:23.507Z,100445.41
2022-09-17T11:22:01.511Z,100433.00
2022-09-17T11:24:50.434Z,100445.13
2022-09-17T11:27:33.257Z,100439.19
2022-09-17T11:30:11.086Z,100444.56
2022-09-17T11:33:18.578Z,100434.28
2022-09-17T11:35:52.765Z,100437.44
2022-09-17T11:38:25.869Z,100436.56
2022-09-17T11:41:02.684Z,100431.47
2022-09-17T11:43:34.223Z,100434.00
2022-09-17T11:46:09.518Z,100433.41
2022-09-17T11:48:46.441Z,100429.63
2022-09-17T11:51:31.263Z,100428.03
2022-09-17T11:54:07.564Z,100439.44
2022-09-17T11:56:40.091Z,100453.19
2022-09-17T11:59:18.411Z,100450.25
2022-09-17T12:01:53.849Z,100446.47
2022-09-17T12:04:40.533Z,100445.78
2022-09-17T12:07:22.878Z,100453.66
2022-09-17T12:09:54.849Z,100469.94
2022-09-17T12:12:48.276Z,100453.56
2022-09-17T12:15:19.489Z,100450.22
2022-09-17T12:18:08.752Z,100454.75
2022-09-17T12:20:46.367Z,100445.69
2022-09-17T12:23:19.445Z,100452.78
2022-09-17T12:25:53.821Z,100448.22
2022-09-17T12:28:28.525Z,100428.84
2022-09-17T12:31:07.054Z,100436.78
2022-09-17T12:33:40.189Z,100441.69
2022-09-17T12:36:37.557Z,100448.09
2022-09-17T12:39:47.669Z,100446.63
2022-09-17T12:42:31.231Z,100439.25
2022-09-17T12:45:19.117Z,100435.94
2022-09-17T12:48:19.546Z,100430.28
2022-09-17T12:50:59.287Z,100423.81
2022-09-17T12:53:31.396Z,100425.09
2022-09-17T12:56:22.587Z,100458.13
2022-09-17T12:59:05.316Z,100451.94
2022-09-17T13:01:41.001Z,100450.06
2022-09-17T13:04:38.174Z,100431.69
2022-09-17T13:07:33.414Z,100427.13
2022-09-17T13:10:12.605Z,100425.22
2022-09-17T13:12:46.854Z,100434.50
2022-09-17T13:15:43.755Z,100430.41
2022-09-17T13:18:26.608Z,100424.00
2022-09-17T13:21:14.049Z,100424.13
2022-09-17T13:23:44.678Z,100416.69
2022-09-17T13:26:16.977Z,100421.81
2022-09-17T13:28:47.780Z,100431.84
2022-09-17T13:31:23.420Z,100420.81
2022-09-17T13:33:59.517Z,100429.97
2022-09-17T13:36:42.515Z,100420.81
2022-09-17T13:39:31.847Z,100427.59
2022-09-17T13:42:06.189Z,100432.75
2022-09-17T13:44:36.417Z,100436.16
2022-09-17T13:47:16.174Z,100441.09
2022-09-17T13:49:49.417Z,100425.47
2022-09-17T13:52:34.757Z,100427.56
2022-09-17T13:55:04.152Z,100428.06
2022-09-17T13:57:35.267Z,100413.94
2022-09-17T14:00:03.676Z,100435.13
2022-09-17T14:02:39.088Z,100433.94
2022-09-17T14:05:40.644Z,100423.16
2022-09-17T14:08:49.632Z,100448.97
2022-09-17T14:11:38.687Z,100436.47
2022-09-17T14:14:25.033Z,100433.78
2022-09-17T14:16:53.060Z,100431.50
2022-09-17T14:19:38.719Z,100429.41
2022-09-17T14:22:17.503Z,100438.38
2022-09-17T14:24:51.171Z,100427.50
2022-09-17T14:27:50.070Z,100434.22
2022-09-17T14:30:21.075Z,100430.78
2022-09-17T14:32:54.974Z,100446.75
2022-09-17T14:35:27.400Z,100454.63
2022-09-17T14:38:01.086Z,100447.59
2022-09-17T14:40:31.295Z,100447.22
2022-09-17T14:42:59.891Z,100436.53
2022-09-17T14:45:33.737Z,100424.06
2022-09-17T14:48:27.916Z,100427.63
2022-09-17T14:51:24.947Z,100436.25
2022-09-17T14:56:59.769Z,100435.59
2022-09-17T14:59:42.718Z,100440.44
2022-09-17T15:02:30.069Z,100428.03
2022-09-17T15:04:58.649Z,100427.91
2022-09-17T15:07:27.502Z,100429.19
2022-09-17T15:09:56.087Z,100433.22
2022-09-17T15:12:30.339Z,100420.09
2022-09-17T15:14:59.076Z,100422.50
2022-09-17T15:17:27.080Z,100434.13
2022-09-17T15:19:58.306Z,100431.41
2022-09-17T15:22:28.958Z,100423.75
2022-09-17T15:25:00.880Z,100431.06
2022-09-17T15:27:32.858Z,100428.00
2022-09-17T15:30:05.115Z,100432.41
2022-09-17T15:32:34.317Z,100439.78
2022-09-17T15:35:28.177Z,100438.53
2022-09-17T15:38:21.888Z,100436.72
2022-09-17T15:40:47.015Z,100440.69
2022-09-17T15:43:19.603Z,100432.91
2022-09-17T15:45:47.690Z,100449.25
2022-09-17T15:48:23.224Z,100428.75
2022-09-17T15:50:53.062Z,100439.75
2022-09-17T15:53:26.014Z,100437.41
2022-09-17T15:56:06.154Z,100435.81
2022-09-17T15:58:52.607Z,100446.81
2022-09-17T16:01:53.555Z,100445.97
2022-09-17T16:04:30.647Z,100450.66
2022-09-17T16:07:19.089Z,100449.66
2022-09-17T16:09:49.888Z,100438.13
2022-09-17T16:12:21.204Z,100439.38
2022-09-17T16:14:53.282Z,100451.41
2022-09-17T16:17:25.694Z,100457.44
2022-09-17T16:19:54.809Z,100457.47
2022-09-17T16:22:23.236Z,100461.06
2022-09-17T16:24:51.295Z,100468.00
2022-09-17T16:27:22.104Z,100467.84
2022-09-17T16:29:53.198Z,100477.38
2022-09-17T16:32:21.396Z,100478.50
2022-09-17T16:34:49.260Z,100479.00
2022-09-17T16:37:17.133Z,100488.41
2022-09-17T16:39:45.054Z,100477.69
2022-09-17T16:42:13.169Z,100483.94
2022-09-17T16:44:40.879Z,100485.91
2022-09-17T16:47:10.140Z,100476.09
2022-09-17T16:49:38.120Z,100490.03
2022-09-17T16:52:05.937Z,100495.97
2022-09-17T16:54:33.993Z,100497.19
2022-09-17T16:57:02.025Z,100497.47
2022-09-17T16:59:29.771Z,100500.66
2022-09-17T17:01:57.749Z,100500.56
2022-09-17T17:04:26.929Z,100502.47
2022-09-17T17:06:54.947Z,100494.34
2022-09-17T17:09:22.844Z,100501.34
2022-09-17T17:11:51.708Z,100497.53
2022-09-17T17:14:19.851Z,100485.81
2022-09-17T17:16:47.975Z,100498.34
2022-09-17T17:19:16.095Z,100495.59
2022-09-17T17:21:47.151Z,100497.34
2022-09-17T17:24:15.442Z,100500.84
2022-09-17T17:26:43.203Z,100501.69
2022-09-17T17:29:11.320Z,100501.25
2022-09-17T17:31:39.508Z,100505.94
2022-09-17T17:34:07.421Z,100506.47
2022-09-17T17:36:35.654Z,100496.75
2022-09-17T17:39:05.063Z,100515.72
2022-09-17T17:41:32.979Z,100506.84
2022-09-17T17:44:00.854Z,100508.56
2022-09-17T17:46:28.907Z,100509.91
2022-09-17T17:48:56.951Z,100517.38
2022-09-17T17:51:25.275Z,100523.47
2022-09-17T17:53:53.165Z,100522.06
2022-09-17T17:56:23.337Z,100521.03
2022-09-17T17:58:54.917Z,100532.06
2022-09-17T18:01:25.158Z,100531.47
2022-09-17T18:03:57.268Z,100537.97
2022-09-17T18:06:25.768Z,100535.41
2022-09-17T18:08:54.520Z,100539.88
2022-09-17T18:11:24.399Z,100540.59
2022-09-17T18:13:53.241Z,100536.81
2022-09-17T18:16:22.196Z,100539.34
2022-09-17T18:18:50.915Z,100541.78
2022-09-17T18:21:20.709Z,100544.09
2022-09-17T18:23:49.555Z,100553.41
2022-09-17T18:26:19.159Z,100553.63
2022-09-17T18:28:48.939Z,100561.53
2022-09-17T18:31:22.581Z,100553.75
2022-09-17T18:33:51.631Z,100560.72
2022-09-17T18:36:19.544Z,100557.31
2022-09-17T18:38:47.477Z,100562.22
2022-09-17T18:41:15.430Z,100568.19
2022-09-17T18:43:43.389Z,100582.47
2022-09-17T18:46:12.777Z,100582.28
2022-09-17T18:48:41.133Z,100571.44
2022-09-17T18:51:12.245Z,100568.88
2022-09-17T18:53:40.683Z,100574.88
2022-09-17T18:56:15.319Z,100577.47
2022-09-17T18:58:43.517Z,100584.25
2022-09-17T19:01:12.916Z,100585.28
2022-09-17T19:03:40.879Z,100585.34
2022-09-17T19:06:11.343Z,100582.22
2022-09-17T19:08:40.094Z,100585.34
2022-09-17T19:11:08.771Z,100591.13
2022-09-17T19:13:38.723Z,100585.78
2022-09-17T19:16:07.597Z,100593.78
2022-09-17T19:18:39.186Z,100592.38
2022-09-17T19:21:09.586Z,100592.78
2022-09-17T19:23:41.896Z,100591.16
2022-09-17T19:26:11.354Z,100594.00
2022-09-17T19:28:39.916Z,100595.53
2022-09-17T19:31:09.348Z,100595.69
2022-09-17T19:33:39.262Z,100590.31
2022-09-17T19:36:09.461Z,100595.59
2022-09-17T19:38:39.403Z,100592.38
2022-09-17T19:41:11.933Z,100598.13
2022-09-17T19:43:40.568Z,100598.94
2022-09-17T19:46:11.482Z,100600.50
2022-09-17T19:48:46.376Z,100595.22
2022-09-17T19:51:15.042Z,100600.94
2022-09-17T19:53:43.747Z,100603.38
2022-09-17T19:56:13.989Z,100596.56
2022-09-17T19:58:42.392Z,100593.66
2022-09-17T20:01:11.104Z,100584.72
2022-09-17T20:03:40.753Z,100583.09
2022-09-17T20:06:12.083Z,100593.00
2022-09-17T20:08:47.017Z,100587.22
2022-09-17T20:11:16.910Z,100591.56
2022-09-17T20:13:45.651Z,100591.94
2022-09-17T20:16:16.762Z,100590.13
2022-09-17T20:18:45.012Z,100601.25
2022-09-17T20:21:16.428Z,100596.81
2022-09-17T20:23:45.048Z,100594.19
2022-09-17T20:26:14.125Z,100606.94
2022-09-17T20:28:42.363Z,100596.00
2022-09-17T20:31:13.557Z,100592.44
2022-09-17T20:33:42.281Z,100590.66
2022-09-17T20:36:15.078Z,100593.72
2022-09-17T20:41:32.225Z,100607.81
2022-09-17T20:44:00.583Z,100608.91
2022-09-17T20:46:29.841Z,100611.13
2022-09-17T20:48:58.577Z,100611.44
2022-09-17T20:51:30.385Z,100616.09
2022-09-17T20:53:58.719Z,100606.66
2022-09-17T20:56:28.675Z,100612.63
2022-09-17T20:59:04.000Z,100608.88
2022-09-17T21:01:34.402Z,100616.41
2022-09-17T21:04:03.591Z,100615.44
2022-09-17T21:06:35.533Z,100613.72
2022-09-17T21:09:03.821Z,100614.78
2022-09-17T21:11:32.011Z,100617.38
2022-09-17T21:14:01.304Z,100619.75
2022-09-17T21:16:29.560Z,100617.69
2022-09-17T21:18:58.202Z,100618.25
2022-09-17T21:21:26.950Z,100620.31
2022-09-17T21:24:01.260Z,100626.38
2022-09-17T21:26:29.732Z,100623.72
2022-09-17T21:28:58.247Z,100618.66
2022-09-17T21:31:32.046Z,100621.03
2022-09-17T21:34:02.311Z,100616.16
2022-09-17T21:36:32.678Z,100618.13
2022-09-17T21:39:04.364Z,100621.38
2022-09-17T21:41:32.960Z,100618.72
2022-09-17T21:44:01.099Z,100623.00
2022-09-17T21:46:32.931Z,100625.75
2022-09-17T21:49:02.557Z,100623.66
2022-09-17T21:51:31.920Z,100619.63
2022-09-17T21:54:03.146Z,100631.38
2022-09-17T21:56:31.833Z,100624.88
2022-09-17T21:59:01.790Z,100631.09
2022-09-17T22:01:32.639Z,100632.44
2022-09-17T22:04:01.933Z,100629.63
2022-09-17T22:06:31.811Z,100634.06
2022-09-17T22:09:02.615Z,100639.88
2022-09-17T22:11:32.535Z,100646.50
2022-09-17T22:14:04.904Z,100639.13
2022-09-17T22:16:35.910Z,100639.63
2022-09-17T22:19:04.768Z,100635.44
2022-09-17T22:21:34.726Z,100629.75
2022-09-17T22:24:07.135Z,100633.66
2022-09-17T22:26:38.222Z,100628.25
2022-09-17T22:29:09.274Z,100641.63
2022-09-17T22:31:37.470Z,100633.97
2022-09-17T22:34:08.130Z,100632.56
2022-09-17T22:36:37.148Z,100628.06
2022-09-17T22:39:10.462Z,100633.59
2022-09-17T22:41:45.233Z,100629.06
2022-09-17T22:44:15.605Z,100634.69
2022-09-17T22:46:43.784Z,100628.66
2022-09-17T22:49:12.206Z,100633.16
2022-09-17T22:51:41.116Z,100643.94
2022-09-17T22:54:12.990Z,100633.16
2022-09-17T22:56:41.978Z,100632.09
2022-09-17T22:59:09.968Z,100627.59
2022-09-17T23:01:38.171Z,100632.09
2022-09-17T23:04:06.658Z,100631.75
2022-09-17T23:06:36.164Z,100632.91
2022-09-17T23:09:05.028Z,100625.97
2022-09-17T23:11:36.763Z,100626.97
2022-09-17T23:14:07.043Z,100622.53
2022-09-17T23:16:36.793Z,100616.50
2022-09-17T23:19:05.205Z,100624.19
2022-09-17T23:21:33.486Z,100609.53
2022-09-17T23:24:01.781Z,100610.75
2022-09-17T23:26:30.023Z,100616.28
2022-09-17T23:29:04.390Z,100609.94
2022-09-17T23:31:34.612Z,100617.41
2022-09-17T23:34:03.619Z,100609.94
2022-09-17T23:36:33.578Z,100601.31
2022-09-17T23:39:02.732Z,100606.22
2022-09-17T23:41:32.348Z,100599.34
2022-09-17T23:44:03.960Z,100608.88
2022-09-17T23:46:34.787Z,100617.50
2022-09-17T23:49:03.531Z,100610.28
2022-09-17T23:51:34.628Z,100609.69
2022-09-17T23:54:02.782Z,100610.56
2022-09-17T23:56:30.768Z,100606.97
2022-09-17T23:59:02.463Z,100609.75
